createdAt,value
2023-01-08T10:15:06.793Z,13.60
2023-01-08T10:17:46.005Z,16.60
2023-01-08T10:20:17.479Z,19.50
2023-01-08T10:22:48.201Z,16.90
2023-01-08T10:25:20.907Z,18.40
2023-01-08T10:27:50.702Z,18.20
2023-01-08T10:30:22.809Z,17.60
2023-01-08T10:32:54.622Z,17.10
2023-01-08T10:35:33.346Z,17.30
2023-01-08T10:38:02.480Z,18.60
2023-01-08T10:40:38.421Z,16.60
2023-01-08T10:43:20.395Z,16.00
2023-01-08T10:45:58.015Z,16.80
2023-01-08T10:48:33.423Z,19.50
2023-01-08T10:51:17.371Z,18.20
2023-01-08T10:53:45.655Z,18.40
2023-01-08T10:56:26.019Z,16.00
2023-01-08T10:58:54.515Z,17.60
2023-01-08T11:01:25.775Z,17.70
2023-01-08T11:03:57.809Z,18.40
2023-01-08T11:06:28.129Z,15.70
2023-01-08T11:09:14.339Z,20.20
2023-01-08T11:11:42.400Z,16.90
2023-01-08T11:14:28.187Z,18.20
2023-01-08T11:19:33.292Z,15.50
2023-01-08T11:22:17.489Z,15.10
2023-01-08T11:24:46.981Z,15.90
2023-01-08T11:27:39.426Z,17.20
2023-01-08T11:30:13.737Z,16.70
2023-01-08T11:33:12.936Z,21.10
2023-01-08T11:36:01.069Z,19.30
2023-01-08T11:38:29.146Z,16.80
2023-01-08T11:41:03.768Z,18.80
2023-01-08T11:44:06.136Z,15.00
2023-01-08T11:46:45.354Z,17.00
2023-01-08T11:49:28.680Z,16.20
2023-01-08T11:52:15.080Z,16.10
2023-01-08T11:54:55.474Z,16.20
2023-01-08T11:57:32.508Z,17.90
2023-01-08T12:00:22.793Z,20.00
2023-01-08T12:03:03.552Z,17.90
2023-01-08T12:05:40.734Z,18.00
2023-01-08T12:08:34.114Z,19.70
2023-01-08T12:11:14.346Z,18.70
2023-01-08T12:14:13.750Z,17.20
2023-01-08T12:16:44.742Z,17.80
2023-01-08T12:19:37.127Z,19.70
2023-01-08T12:22:31.390Z,16.00
2023-01-08T12:25:23.012Z,18.30
2023-01-08T12:28:17.178Z,17.80
2023-01-08T12:31:10.176Z,20.60
2023-01-08T12:33:56.328Z,19.30
2023-01-08T12:36:30.841Z,20.80
2023-01-08T12:39:29.405Z,19.50
2023-01-08T12:42:11.827Z,20.70
2023-01-08T12:44:40.808Z,19.90
2023-01-08T12:47:16.647Z,22.90
2023-01-08T12:49:52.829Z,20.80
2023-01-08T12:52:37.011Z,21.50
2023-01-08T12:55:37.591Z,22.20
2023-01-08T12:58:23.568Z,21.20
2023-01-08T13:01:07.615Z,22.30
2023-01-08T13:03:36.404Z,21.60
2023-01-08T13:06:23.196Z,22.90
2023-01-08T13:08:54.092Z,22.60
2023-01-08T13:11:28.053Z,21.30
2023-01-08T13:14:09.345Z,24.80
2023-01-08T13:16:39.894Z,22.00
2023-01-08T13:19:25.084Z,21.10
2023-01-08T13:21:58.462Z,22.00
2023-01-08T13:24:41.245Z,22.50
2023-01-08T13:27:28.249Z,21.50
2023-01-08T13:29:58.273Z,22.60
2023-01-08T13:32:44.267Z,21.50
2023-01-08T13:35:15.219Z,22.00
2023-01-08T13:37:44.208Z,23.30
2023-01-08T13:40:43.186Z,20.80
2023-01-08T13:43:19.943Z,21.10
2023-01-08T13:46:00.069Z,19.90
2023-01-08T13:48:32.740Z,21.20
2023-01-08T13:51:01.164Z,19.70
2023-01-08T13:53:29.655Z,19.60
2023-01-08T13:56:06.008Z,21.90
2023-01-08T13:58:38.149Z,19.60
2023-01-08T14:01:07.954Z,19.50
2023-01-08T14:03:38.854Z,21.20
2023-01-08T14:06:20.309Z,17.80
2023-01-08T14:09:01.503Z,19.40
2023-01-08T14:11:31.111Z,20.40
2023-01-08T14:13:59.598Z,18.60
2023-01-08T14:16:28.465Z,16.10
2023-01-08T14:19:01.586Z,17.80
2023-01-08T14:21:29.747Z,23.00
2023-01-08T14:23:58.440Z,21.10
2023-01-08T14:26:41.572Z,19.70
2023-01-08T14:29:19.798Z,24.90
2023-01-08T14:32:00.465Z,17.60
2023-01-08T14:34:32.660Z,21.00
2023-01-08T14:37:00.791Z,19.50
2023-01-08T14:39:31.565Z,17.90
2023-01-08T14:42:37.868Z,21.40
2023-01-08T14:45:15.362Z,18.60
2023-01-08T14:47:46.118Z,23.40
2023-01-08T14:50:28.644Z,19.50
2023-01-08T14:53:09.880Z,21.80
2023-01-08T14:55:44.817Z,22.50
2023-01-08T14:58:22.508Z,23.50
2023-01-08T15:01:03.241Z,18.70
2023-01-08T15:03:34.621Z,109.00
2023-01-08T15:06:03.792Z,141.50
2023-01-08T15:08:34.363Z,91.70
2023-01-08T15:11:04.377Z,275.30
2023-01-08T15:13:35.796Z,191.20
2023-01-08T15:16:11.029Z,188.40
2023-01-08T15:18:49.026Z,303.90
2023-01-08T15:21:22.789Z,286.80
2023-01-08T15:23:55.055Z,248.10
2023-01-08T15:26:24.207Z,219.70
2023-01-08T15:28:58.779Z,214.50
2023-01-08T15:31:32.214Z,214.10
2023-01-08T15:34:01.281Z,181.00
2023-01-08T15:36:29.474Z,111.00
2023-01-08T15:38:57.646Z,101.30
2023-01-08T15:42:04.428Z,88.70
2023-01-08T15:44:32.682Z,77.00
2023-01-08T15:47:00.746Z,68.00
2023-01-08T15:49:29.035Z,59.90
2023-01-08T15:51:57.108Z,54.50
2023-01-08T15:54:26.021Z,49.20
2023-01-08T15:56:54.088Z,41.80
2023-01-08T15:59:22.258Z,35.70
2023-01-08T16:01:50.541Z,30.40
2023-01-08T16:04:18.829Z,26.80
2023-01-08T16:06:47.189Z,27.00
2023-01-08T16:09:15.249Z,31.00
2023-01-08T16:11:43.565Z,33.30
2023-01-08T16:14:11.847Z,47.40
2023-01-08T16:16:40.163Z,99.50
2023-01-08T16:19:08.302Z,184.00
2023-01-08T16:21:36.589Z,158.90
2023-01-08T16:24:05.430Z,233.60
2023-01-08T16:26:33.658Z,169.90
2023-01-08T16:29:01.732Z,163.30
2023-01-08T16:31:29.815Z,134.00
2023-01-08T16:34:05.365Z,122.20
2023-01-08T16:36:33.638Z,118.20
2023-01-08T16:39:02.021Z,96.40
2023-01-08T16:41:30.405Z,89.60
2023-01-08T16:43:58.583Z,78.50
2023-01-08T16:46:27.080Z,54.60
2023-01-08T16:48:55.861Z,46.30
2023-01-08T16:51:26.100Z,36.00
2023-01-08T16:53:54.283Z,32.70
2023-01-08T16:56:22.343Z,88.90
2023-01-08T16:58:52.367Z,67.80
2023-01-08T17:01:21.051Z,73.30
2023-01-08T17:03:50.798Z,70.70
2023-01-08T17:06:18.946Z,56.50
2023-01-08T17:08:47.131Z,52.80
2023-01-08T17:11:21.139Z,45.20
2023-01-08T17:13:49.831Z,44.20
2023-01-08T17:16:19.273Z,36.60
2023-01-08T17:18:47.407Z,36.20
2023-01-08T17:21:18.525Z,32.70
2023-01-08T17:23:47.149Z,33.50
2023-01-08T17:26:17.856Z,31.80
2023-01-08T17:28:47.373Z,60.90
2023-01-08T17:31:18.914Z,170.90
2023-01-08T17:33:50.363Z,269.10
2023-01-08T17:36:21.754Z,349.00
2023-01-08T17:38:53.647Z,463.50
2023-01-08T17:41:41.846Z,339.40
2023-01-08T17:44:13.115Z,333.30
2023-01-08T17:46:45.411Z,326.30
2023-01-08T17:49:15.903Z,279.40
2023-01-08T17:51:46.199Z,284.10
2023-01-08T17:54:17.322Z,327.20
2023-01-08T17:56:45.730Z,315.20
2023-01-08T17:59:16.070Z,257.00
2023-01-08T18:01:46.331Z,216.90
2023-01-08T18:04:15.507Z,225.50
2023-01-08T18:06:45.865Z,220.50
2023-01-08T18:09:20.517Z,210.20
2023-01-08T18:11:50.337Z,195.90
2023-01-08T18:14:21.135Z,186.40
2023-01-08T18:16:53.906Z,179.90
2023-01-08T18:19:26.364Z,176.80
2023-01-08T18:21:56.689Z,169.60
2023-01-08T18:24:25.079Z,166.20
2023-01-08T18:26:54.068Z,157.50
2023-01-08T18:29:22.774Z,142.40
2023-01-08T18:31:56.056Z,144.00
2023-01-08T18:34:24.951Z,134.30
2023-01-08T18:36:54.212Z,131.70
2023-01-08T18:39:22.872Z,127.60
2023-01-08T18:42:09.947Z,121.70
2023-01-08T18:44:38.764Z,115.10
2023-01-08T18:47:07.918Z,113.00
2023-01-08T18:49:36.580Z,110.90
2023-01-08T18:52:05.211Z,108.40
2023-01-08T18:54:42.720Z,100.80
2023-01-08T18:57:12.159Z,96.60
2023-01-08T18:59:41.867Z,95.50
2023-01-08T19:02:19.937Z,92.90
2023-01-08T19:04:49.248Z,91.20
2023-01-08T19:07:18.827Z,82.50
2023-01-08T19:09:47.291Z,84.80
2023-01-08T19:12:16.395Z,85.00
2023-01-08T19:14:47.002Z,79.60
2023-01-08T19:17:15.902Z,79.80
2023-01-08T19:19:44.521Z,77.20
2023-01-08T19:22:13.001Z,74.30
2023-01-08T19:24:41.608Z,68.80
2023-01-08T19:27:10.143Z,66.80
2023-01-08T19:29:38.882Z,72.70
2023-01-08T19:32:09.537Z,69.00
2023-01-08T19:34:38.035Z,66.10
2023-01-08T19:37:06.751Z,71.20
2023-01-08T19:39:36.179Z,63.10
2023-01-08T19:42:23.299Z,62.70
2023-01-08T19:44:53.594Z,65.00
2023-01-08T19:47:22.129Z,61.20
2023-01-08T19:49:51.374Z,59.40
2023-01-08T19:52:20.416Z,63.40
2023-01-08T19:54:51.139Z,56.50
2023-01-08T19:57:23.373Z,60.50
2023-01-08T19:59:52.871Z,52.00
2023-01-08T20:02:27.962Z,52.00
2023-01-08T20:04:57.198Z,50.70
2023-01-08T20:07:28.719Z,49.40
2023-01-08T20:09:58.909Z,44.90
2023-01-08T20:12:27.659Z,49.60
2023-01-08T20:14:56.252Z,45.50
2023-01-08T20:17:25.322Z,45.70
2023-01-08T20:19:54.041Z,44.30
2023-01-08T20:22:22.584Z,45.10
2023-01-08T20:24:53.261Z,41.70
2023-01-08T20:27:22.245Z,44.70
2023-01-08T20:29:50.628Z,39.30
2023-01-08T20:32:22.085Z,43.60
2023-01-08T20:34:51.966Z,37.80
2023-01-08T20:37:20.632Z,38.80
2023-01-08T20:39:50.120Z,40.90
2023-01-08T20:42:33.056Z,39.40
2023-01-08T20:45:02.841Z,41.20
2023-01-08T20:47:35.345Z,41.60
2023-01-08T20:50:12.304Z,39.70
2023-01-08T20:52:49.010Z,42.10
2023-01-08T20:55:18.755Z,40.40
2023-01-08T20:57:50.250Z,41.30
2023-01-08T21:00:21.745Z,41.40
2023-01-08T21:02:50.158Z,37.20
2023-01-08T21:05:18.793Z,37.90
2023-01-08T21:07:48.736Z,39.40
2023-01-08T21:10:17.555Z,37.10
2023-01-08T21:12:46.107Z,42.50
2023-01-08T21:15:14.931Z,39.80
2023-01-08T21:17:44.899Z,36.20
2023-01-08T21:20:13.528Z,35.90
2023-01-08T21:22:42.661Z,35.90
2023-01-08T21:25:21.741Z,35.40
2023-01-08T21:27:51.246Z,35.30
2023-01-08T21:30:19.716Z,35.70
2023-01-08T21:32:51.125Z,39.60
2023-01-08T21:35:25.537Z,38.60
2023-01-08T21:37:59.085Z,39.60
2023-01-08T21:40:31.613Z,36.30
2023-01-08T21:43:19.954Z,38.70
2023-01-08T21:45:57.773Z,36.70
2023-01-08T21:48:29.321Z,38.00
2023-01-08T21:51:28.768Z,35.00
2023-01-08T21:53:57.027Z,37.40
2023-01-08T21:56:30.545Z,36.30
2023-01-08T21:59:01.431Z,38.10
2023-01-08T22:01:32.542Z,39.60
2023-01-08T22:04:01.360Z,37.90
2023-01-08T22:06:42.831Z,43.00
2023-01-08T22:09:14.555Z,40.10
2023-01-08T22:11:53.637Z,41.20
2023-01-08T22:14:24.450Z,40.70
2023-01-08T22:17:04.342Z,42.10
2023-01-08T22:19:32.718Z,41.70
2023-01-08T22:22:01.602Z,40.40
2023-01-08T22:24:35.228Z,38.20
2023-01-08T22:27:03.806Z,39.90
2023-01-08T22:29:32.349Z,37.40
2023-01-08T22:32:04.361Z,39.60
2023-01-08T22:34:34.470Z,40.60
2023-01-08T22:37:08.584Z,41.40
2023-01-08T22:39:38.856Z,41.20
2023-01-08T22:42:07.685Z,41.50
2023-01-08T22:44:38.955Z,46.90
2023-01-08T22:47:27.801Z,43.00
2023-01-08T22:49:57.777Z,38.80
2023-01-08T22:52:29.226Z,43.50
2023-01-08T22:55:00.207Z,43.30
2023-01-08T22:57:28.916Z,45.50
2023-01-08T23:00:00.316Z,49.30
2023-01-08T23:02:34.030Z,44.00
2023-01-08T23:05:05.676Z,48.00
2023-01-08T23:07:37.288Z,45.30
2023-01-08T23:10:09.917Z,44.30
2023-01-08T23:12:59.341Z,45.30
2023-01-08T23:15:28.455Z,44.20
2023-01-08T23:17:58.077Z,49.40
2023-01-08T23:20:29.306Z,45.70
2023-01-08T23:23:01.191Z,47.00
2023-01-08T23:25:43.758Z,45.40
2023-01-08T23:28:13.285Z,51.00
2023-01-08T23:30:45.244Z,46.80
2023-01-08T23:33:17.510Z,47.10
2023-01-08T23:35:48.650Z,48.20
2023-01-08T23:38:23.803Z,44.50
2023-01-08T23:40:53.017Z,47.10
2023-01-08T23:43:29.358Z,43.30
2023-01-08T23:46:14.970Z,48.50
2023-01-08T23:48:44.353Z,48.20
2023-01-08T23:51:13.471Z,43.40
2023-01-08T23:53:43.715Z,48.10
2023-01-08T23:56:15.976Z,48.20
2023-01-08T23:58:46.656Z,48.40
